createdAt,value
2018-09-10T00:02:19.495Z,15.10
2018-09-10T00:04:50.166Z,15.10
2018-09-10T00:07:20.853Z,15.10
2018-09-10T00:09:51.724Z,15.10
2018-09-10T00:12:22.433Z,15.10
2018-09-10T00:14:53.117Z,15.10
2018-09-10T00:17:23.780Z,15.10
2018-09-10T00:19:54.446Z,15.00
2018-09-10T00:22:25.121Z,15.00
2018-09-10T00:24:55.782Z,15.00
2018-09-10T00:27:26.464Z,15.00
2018-09-10T00:29:57.137Z,15.00
2018-09-10T00:32:28.008Z,15.00
2018-09-10T00:34:58.673Z,15.00
2018-09-10T00:37:30.649Z,15.00
2018-09-10T00:40:02.311Z,15.00
2018-09-10T00:42:33.110Z,15.00
2018-09-10T00:45:04.927Z,15.00
2018-09-10T00:47:36.764Z,15.00
2018-09-10T00:50:08.368Z,15.00
2018-09-10T00:52:39.906Z,15.10
2018-09-10T00:55:11.220Z,15.10
2018-09-10T00:57:42.946Z,15.10
2018-09-10T01:00:13.638Z,15.20
2018-09-10T01:02:44.284Z,15.20
2018-09-10T01:05:14.971Z,15.20
2018-09-10T01:07:45.634Z,15.30
2018-09-10T01:10:16.365Z,15.30
2018-09-10T01:12:47.229Z,15.30
2018-09-10T01:15:17.924Z,15.40
2018-09-10T01:17:48.612Z,15.40
2018-09-10T01:20:19.651Z,15.40
2018-09-10T01:22:50.331Z,15.50
2018-09-10T01:25:21.044Z,15.50
2018-09-10T01:27:51.733Z,15.50
2018-09-10T01:30:22.496Z,15.50
2018-09-10T01:32:53.232Z,15.60
2018-09-10T01:35:24.069Z,15.60
2018-09-10T01:37:54.707Z,15.60
2018-09-10T01:40:25.401Z,15.70
2018-09-10T01:42:56.044Z,15.70
2018-09-10T01:45:26.726Z,15.70
2018-09-10T01:47:57.614Z,15.70
2018-09-10T01:50:28.304Z,15.70
2018-09-10T01:52:58.959Z,15.70
2018-09-10T01:55:29.676Z,15.70
2018-09-10T01:58:00.348Z,15.80
2018-09-10T02:00:31.036Z,15.80
2018-09-10T02:03:01.688Z,15.70
2018-09-10T02:05:32.392Z,15.70
2018-09-10T02:08:03.448Z,15.70
2018-09-10T02:10:34.199Z,15.70
2018-09-10T02:13:04.967Z,15.60
2018-09-10T02:15:51.076Z,15.60
2018-09-10T02:18:22.654Z,15.60
2018-09-10T02:20:53.344Z,15.60
2018-09-10T02:23:24.444Z,15.50
2018-09-10T02:25:55.128Z,15.50
2018-09-10T02:28:25.816Z,15.50
2018-09-10T02:30:56.541Z,15.40
2018-09-10T02:33:27.556Z,15.40
2018-09-10T02:35:58.273Z,15.40
2018-09-10T02:38:28.969Z,15.40
2018-09-10T02:40:59.822Z,15.50
2018-09-10T02:43:30.477Z,15.60
2018-09-10T02:46:01.164Z,15.60
2018-09-10T02:48:31.825Z,15.60
2018-09-10T02:51:02.537Z,15.70
2018-09-10T02:53:33.189Z,15.70
2018-09-10T02:56:03.928Z,15.70
2018-09-10T02:58:34.601Z,15.70
2018-09-10T03:01:05.440Z,15.70
2018-09-10T03:03:36.351Z,15.70
2018-09-10T03:06:07.377Z,15.60
2018-09-10T03:08:38.024Z,15.70
2018-09-10T03:11:08.699Z,15.60
2018-09-10T03:13:39.471Z,15.60
2018-09-10T03:16:10.145Z,15.50
2018-09-10T03:18:40.805Z,15.50
2018-09-10T03:21:11.484Z,15.40
2018-09-10T03:23:42.132Z,15.40
2018-09-10T03:26:12.860Z,15.30
2018-09-10T03:28:43.542Z,15.30
2018-09-10T03:31:14.220Z,15.20
2018-09-10T03:33:44.915Z,15.10
2018-09-10T03:36:15.793Z,15.10
2018-09-10T03:38:46.455Z,15.10
2018-09-10T03:41:17.136Z,15.00
2018-09-10T03:43:47.793Z,15.00
2018-09-10T03:46:18.509Z,15.00
2018-09-10T03:48:49.195Z,14.90
2018-09-10T03:51:19.871Z,14.90
2018-09-10T03:53:50.521Z,14.90
2018-09-10T03:56:21.244Z,15.00
2018-09-10T03:58:52.020Z,14.90
2018-09-10T04:01:22.710Z,15.00
2018-09-10T04:03:53.384Z,14.90
2018-09-10T04:06:24.263Z,14.90
2018-09-10T04:08:54.909Z,14.90
2018-09-10T04:11:25.596Z,14.90
2018-09-10T04:13:56.272Z,14.90
2018-09-10T04:16:26.920Z,14.90
2018-09-10T04:18:57.834Z,14.90
2018-09-10T04:21:28.533Z,14.90
2018-09-10T04:23:59.593Z,14.90
2018-09-10T04:26:30.621Z,14.90
2018-09-10T04:29:01.447Z,14.90
2018-09-10T04:31:32.098Z,14.90
2018-09-10T04:34:02.777Z,14.90
2018-09-10T04:36:33.480Z,14.90
2018-09-10T04:39:06.254Z,15.00
2018-09-10T04:41:39.865Z,15.00
2018-09-10T04:44:11.212Z,15.00
2018-09-10T04:46:42.608Z,15.10
2018-09-10T04:49:13.902Z,15.10
2018-09-10T04:51:44.536Z,15.10
2018-09-10T04:54:17.007Z,15.10
2018-09-10T04:56:47.685Z,15.20
2018-09-10T04:59:18.384Z,15.10
2018-09-10T05:01:49.037Z,15.20
2018-09-10T05:04:19.764Z,15.20
2018-09-10T05:06:50.582Z,15.10
2018-09-10T05:09:21.468Z,15.10
2018-09-10T05:11:52.112Z,15.10
2018-09-10T05:14:22.794Z,15.10
2018-09-10T05:16:53.439Z,15.10
2018-09-10T05:19:24.132Z,15.10
2018-09-10T05:21:54.888Z,15.10
2018-09-10T05:24:25.681Z,15.10
2018-09-10T05:26:56.356Z,15.10
2018-09-10T05:29:27.065Z,15.10
2018-09-10T05:31:57.714Z,15.10
2018-09-10T05:34:28.404Z,15.10
2018-09-10T05:36:59.060Z,15.10
2018-09-10T05:39:29.731Z,15.10
2018-09-10T05:42:00.408Z,15.20
2018-09-10T05:44:31.270Z,15.20
2018-09-10T05:47:01.936Z,15.20
2018-09-10T05:49:32.616Z,15.20
2018-09-10T05:52:03.296Z,15.20
2018-09-10T05:54:33.971Z,15.20
2018-09-10T05:57:04.664Z,15.20
2018-09-10T05:59:35.349Z,15.30
2018-09-10T06:02:06.012Z,15.30
2018-09-10T06:04:36.699Z,15.30
2018-09-10T06:07:07.389Z,15.30
2018-09-10T06:09:38.085Z,15.40
2018-09-10T06:12:08.761Z,15.40
2018-09-10T06:14:39.449Z,15.40
2018-09-10T06:17:10.136Z,15.40
2018-09-10T06:19:40.790Z,15.50
2018-09-10T06:22:11.617Z,15.50
2018-09-10T06:24:42.276Z,15.50
2018-09-10T06:27:12.952Z,15.60
2018-09-10T06:29:43.617Z,15.60
2018-09-10T06:32:14.296Z,15.60
2018-09-10T06:34:44.949Z,15.70
2018-09-10T06:37:15.751Z,15.80
2018-09-10T06:39:46.512Z,15.80
2018-09-10T06:42:17.205Z,15.80
2018-09-10T06:44:47.851Z,15.80
2018-09-10T06:47:18.552Z,15.90
2018-09-10T06:49:49.208Z,15.90
2018-09-10T06:52:20.120Z,15.90
2018-09-10T06:54:50.776Z,16.00
2018-09-10T06:57:21.480Z,16.00
2018-09-10T06:59:52.357Z,16.00
2018-09-10T07:02:23.057Z,16.10
2018-09-10T07:04:53.937Z,16.20
2018-09-10T07:07:24.645Z,16.20
2018-09-10T07:10:02.038Z,16.20
2018-09-10T07:12:32.826Z,16.30
2018-09-10T07:15:03.685Z,16.40
2018-09-10T07:17:34.368Z,16.40
2018-09-10T07:20:06.537Z,16.50
2018-09-10T07:22:37.351Z,16.60
2018-09-10T07:25:08.062Z,16.70
2018-09-10T07:27:38.700Z,16.70
2018-09-10T07:30:09.746Z,16.80
2018-09-10T07:32:40.405Z,16.80
2018-09-10T07:35:11.131Z,16.90
2018-09-10T07:37:41.789Z,17.00
2018-09-10T07:40:12.507Z,17.00
2018-09-10T07:42:43.166Z,17.10
2018-09-10T07:45:13.853Z,17.20
2018-09-10T07:47:44.506Z,17.30
2018-09-10T07:50:15.205Z,17.40
2018-09-10T07:52:45.897Z,17.40
2018-09-10T07:55:16.605Z,17.50
2018-09-10T07:57:47.332Z,17.50
2018-09-10T08:00:18.002Z,17.50
2018-09-10T08:02:48.966Z,17.60
2018-09-10T08:05:20.017Z,17.60
2018-09-10T08:07:50.758Z,17.70
2018-09-10T08:10:21.477Z,17.80
2018-09-10T08:12:52.197Z,17.80
2018-09-10T08:15:22.889Z,17.90
2018-09-10T08:17:53.552Z,17.90
2018-09-10T08:20:24.249Z,17.90
2018-09-10T08:22:54.933Z,17.90
2018-09-10T08:25:25.632Z,17.90
2018-09-10T08:27:56.320Z,18.00
2018-09-10T08:30:27.029Z,18.00
2018-09-10T08:32:57.877Z,18.10
2018-09-10T08:35:28.613Z,18.10
2018-09-10T08:37:59.332Z,18.20
2018-09-10T08:40:30.043Z,18.30
2018-09-10T08:43:00.710Z,18.40
2018-09-10T08:45:31.421Z,18.50
2018-09-10T08:48:02.113Z,18.60
2018-09-10T08:50:32.801Z,18.70
2018-09-10T08:53:03.503Z,18.80
2018-09-10T08:55:34.684Z,18.90
2018-09-10T08:58:05.462Z,18.90
2018-09-10T09:00:36.471Z,18.90
2018-09-10T09:03:07.171Z,19.00
2018-09-10T09:05:37.820Z,19.00
2018-09-10T09:08:08.733Z,19.00
2018-09-10T09:10:39.464Z,19.10
2018-09-10T09:13:10.125Z,19.20
2018-09-10T09:15:40.824Z,19.20
2018-09-10T09:18:11.565Z,19.40
2018-09-10T09:20:42.426Z,19.50
2018-09-10T09:23:13.366Z,19.60
2018-09-10T09:25:44.159Z,19.60
2018-09-10T09:28:14.877Z,19.70
2018-09-10T09:30:45.582Z,19.70
2018-09-10T09:33:16.531Z,19.80
2018-09-10T09:35:52.669Z,19.80
2018-09-10T09:38:29.359Z,19.90
2018-09-10T09:41:05.183Z,19.90
2018-09-10T09:43:41.065Z,19.90
2018-09-10T09:46:14.449Z,19.90
2018-09-10T09:48:44.864Z,19.90
2018-09-10T09:51:15.671Z,19.90
2018-09-10T09:53:46.472Z,19.90
2018-09-10T09:56:17.168Z,20.00
2018-09-10T09:58:47.864Z,20.00
2018-09-10T10:01:22.041Z,20.00
2018-09-10T10:03:57.866Z,20.00
2018-09-10T10:06:28.729Z,20.10
2018-09-10T10:08:59.380Z,20.20
2018-09-10T10:11:29.765Z,20.30
2018-09-10T10:14:00.628Z,20.40
2018-09-10T10:16:31.058Z,20.50
2018-09-10T10:19:01.904Z,20.50
2018-09-10T10:21:32.303Z,20.60
2018-09-10T10:24:03.035Z,20.60
2018-09-10T10:26:33.436Z,20.70
2018-09-10T10:29:03.834Z,20.70
2018-09-10T10:31:34.228Z,20.70
2018-09-10T10:34:04.651Z,20.80
2018-09-10T10:36:35.213Z,20.80
2018-09-10T10:39:07.677Z,20.90
2018-09-10T10:41:38.250Z,20.90
2018-09-10T10:44:08.616Z,21.00
2018-09-10T10:46:39.024Z,21.00
2018-09-10T10:49:09.404Z,21.10
2018-09-10T10:51:39.855Z,21.20
2018-09-10T10:54:10.245Z,21.20
2018-09-10T10:56:40.682Z,21.30
2018-09-10T10:59:11.097Z,21.30
2018-09-10T11:01:41.505Z,21.30
2018-09-10T11:04:11.938Z,21.40
2018-09-10T11:06:42.513Z,21.40
2018-09-10T11:09:12.880Z,21.50
2018-09-10T11:11:43.297Z,21.50
2018-09-10T11:14:13.677Z,21.60
2018-09-10T11:16:44.127Z,21.70
2018-09-10T11:19:14.651Z,21.70
2018-09-10T11:21:45.044Z,21.80
2018-09-10T11:24:15.445Z,21.90
2018-09-10T11:26:45.818Z,22.00
2018-09-10T11:29:16.221Z,22.20
2018-09-10T11:31:46.594Z,22.20
2018-09-10T11:34:17.353Z,22.30
2018-09-10T11:36:47.944Z,22.40
2018-09-10T11:39:18.344Z,22.50
2018-09-10T11:41:48.754Z,22.50
2018-09-10T11:44:19.129Z,22.60
2018-09-10T11:46:49.529Z,22.70
2018-09-10T11:49:19.937Z,22.70
2018-09-10T11:51:50.340Z,22.80
2018-09-10T11:54:20.745Z,22.90
2018-09-10T11:56:51.148Z,23.00
2018-09-10T11:59:21.572Z,23.10
2018-09-10T12:01:51.988Z,23.20
2018-09-10T12:04:22.565Z,23.30
2018-09-10T12:06:52.968Z,23.40
2018-09-10T12:09:23.361Z,23.50
2018-09-10T12:11:53.727Z,23.50
2018-09-10T12:14:24.129Z,23.60
2018-09-10T12:16:54.497Z,23.60
2018-09-10T12:19:24.905Z,23.70
2018-09-10T12:21:55.285Z,23.80
2018-09-10T12:24:25.707Z,23.90
2018-09-10T12:26:56.103Z,23.90
2018-09-10T12:29:26.507Z,24.00
2018-09-10T12:31:56.872Z,24.10
2018-09-10T12:34:27.343Z,24.10
2018-09-10T12:36:57.952Z,24.20
2018-09-10T12:39:28.373Z,24.10
2018-09-10T12:41:58.944Z,24.10
2018-09-10T12:44:29.371Z,24.10
2018-09-10T12:46:59.777Z,24.00
2018-09-10T12:49:30.176Z,24.00
2018-09-10T12:52:00.629Z,23.90
2018-09-10T12:54:31.016Z,23.80
2018-09-10T12:57:01.469Z,23.80
2018-09-10T12:59:31.868Z,23.80
2018-09-10T13:02:02.278Z,23.70
2018-09-10T13:04:32.653Z,23.70
2018-09-10T13:07:03.081Z,23.60
2018-09-10T13:09:33.452Z,23.60
2018-09-10T13:12:04.204Z,23.60
2018-09-10T13:14:34.582Z,23.60
2018-09-10T13:17:04.995Z,23.70
2018-09-10T13:19:35.380Z,23.70
2018-09-10T13:22:06.138Z,23.80
2018-09-10T13:24:36.530Z,23.80
2018-09-10T13:27:07.284Z,23.80
2018-09-10T13:29:37.736Z,23.80
2018-09-10T13:32:08.279Z,23.80
2018-09-10T13:34:38.705Z,23.80
2018-09-10T13:37:09.081Z,23.80
2018-09-10T13:39:39.512Z,23.80
2018-09-10T13:42:09.887Z,23.80
2018-09-10T13:44:40.289Z,23.80
2018-09-10T13:47:10.673Z,23.80
2018-09-10T13:49:41.109Z,23.80
2018-09-10T13:52:11.487Z,23.70
2018-09-10T13:54:41.910Z,23.70
2018-09-10T13:57:12.336Z,23.70
2018-09-10T13:59:42.754Z,23.70
2018-09-10T14:02:13.483Z,23.60
2018-09-10T14:04:43.893Z,23.60
2018-09-10T14:07:14.287Z,23.50
2018-09-10T14:09:44.686Z,23.50
2018-09-10T14:12:15.296Z,23.60
2018-09-10T14:14:45.908Z,23.50
2018-09-10T14:17:16.306Z,23.50
2018-09-10T14:19:46.900Z,23.50
2018-09-10T14:22:17.471Z,23.50
2018-09-10T14:24:48.070Z,23.50
2018-09-10T14:27:18.509Z,23.50
2018-09-10T14:29:49.094Z,23.50
2018-09-10T14:32:19.661Z,23.50
2018-09-10T14:34:50.066Z,23.50
2018-09-10T14:37:20.485Z,23.50
2018-09-10T14:39:51.120Z,23.50
2018-09-10T14:42:21.712Z,23.50
2018-09-10T14:44:52.140Z,23.40
2018-09-10T14:47:22.717Z,23.40
2018-09-10T14:49:53.480Z,23.40
2018-09-10T14:52:24.052Z,23.30
2018-09-10T14:54:54.667Z,23.20
2018-09-10T14:57:25.073Z,23.20
2018-09-10T14:59:55.459Z,23.10
2018-09-10T15:02:25.900Z,23.10
2018-09-10T15:04:56.320Z,23.00
2018-09-10T15:07:26.721Z,22.90
2018-09-10T15:09:57.117Z,22.90
2018-09-10T15:12:27.517Z,22.80
2018-09-10T15:14:57.889Z,22.90
2018-09-10T15:17:28.321Z,22.80
2018-09-10T15:19:58.908Z,22.80
2018-09-10T15:22:29.325Z,22.80
2018-09-10T15:24:59.697Z,22.80
2018-09-10T15:27:30.097Z,22.90
2018-09-10T15:30:00.468Z,22.90
2018-09-10T15:32:30.907Z,22.90
2018-09-10T15:35:01.301Z,22.90
2018-09-10T15:37:38.770Z,22.90
2018-09-10T15:40:09.492Z,22.90
2018-09-10T15:42:39.893Z,22.90
2018-09-10T15:45:10.356Z,22.90
2018-09-10T15:47:40.913Z,22.80
2018-09-10T15:50:11.329Z,22.80
2018-09-10T15:52:41.713Z,22.80
2018-09-10T15:55:12.114Z,22.80
2018-09-10T15:57:42.515Z,22.70
2018-09-10T16:00:12.988Z,22.70
2018-09-10T16:02:43.537Z,22.70
2018-09-10T16:05:13.948Z,22.70
2018-09-10T16:07:44.367Z,22.60
2018-09-10T16:10:14.969Z,22.60
2018-09-10T16:12:45.360Z,22.60
2018-09-10T16:15:15.733Z,22.50
2018-09-10T16:17:46.321Z,22.50
2018-09-10T16:20:16.695Z,22.50
2018-09-10T16:22:47.133Z,22.50
2018-09-10T16:25:17.684Z,22.40
2018-09-10T16:27:48.263Z,22.40
2018-09-10T16:30:19.555Z,22.30
2018-09-10T16:32:49.952Z,22.30
2018-09-10T16:35:20.324Z,22.30
2018-09-10T16:37:50.915Z,22.20
2018-09-10T16:40:21.273Z,22.20
2018-09-10T16:42:51.677Z,22.20
2018-09-10T16:45:22.055Z,22.10
2018-09-10T16:47:52.468Z,22.10
2018-09-10T16:50:22.867Z,22.10
2018-09-10T16:52:53.250Z,22.10
2018-09-10T16:55:23.639Z,22.00
2018-09-10T16:57:54.037Z,22.00
2018-09-10T17:00:24.428Z,21.90
2018-09-10T17:02:54.837Z,21.90
2018-09-10T17:05:25.244Z,21.80
2018-09-10T17:07:55.684Z,21.80
2018-09-10T17:10:26.090Z,21.70
2018-09-10T17:12:56.507Z,21.70
2018-09-10T17:15:27.430Z,21.60
2018-09-10T17:17:57.830Z,21.60
2018-09-10T17:20:28.217Z,21.60
2018-09-10T17:22:58.706Z,21.60
2018-09-10T17:25:29.219Z,21.60
2018-09-10T17:27:59.620Z,21.50
2018-09-10T17:30:30.150Z,21.50
2018-09-10T17:33:00.721Z,21.50
2018-09-10T17:35:31.097Z,21.40
2018-09-10T17:38:01.513Z,21.40
2018-09-10T17:40:31.925Z,21.30
2018-09-10T17:43:02.321Z,21.30
2018-09-10T17:45:32.721Z,21.30
2018-09-10T17:48:03.340Z,21.20
2018-09-10T17:50:34.077Z,21.20
2018-09-10T17:53:04.721Z,21.10
2018-09-10T17:55:35.264Z,21.10
2018-09-10T17:58:05.927Z,21.00
2018-09-10T18:00:39.572Z,21.00
2018-09-10T18:03:11.624Z,20.90
2018-09-10T18:05:42.675Z,20.90
2018-09-10T18:08:13.387Z,20.80
2018-09-10T18:10:44.044Z,20.70
2018-09-10T18:13:14.684Z,20.60
2018-09-10T18:15:45.251Z,20.50
2018-09-10T18:18:15.619Z,20.50
2018-09-10T18:20:46.034Z,20.40
2018-09-10T18:23:16.469Z,20.40
2018-09-10T18:25:46.940Z,20.30
2018-09-10T18:28:17.344Z,20.20
2018-09-10T18:30:47.736Z,20.10
2018-09-10T18:33:18.418Z,20.00
2018-09-10T18:35:48.838Z,20.00
2018-09-10T18:38:19.228Z,19.90
2018-09-10T18:40:49.655Z,19.80
2018-09-10T18:43:20.049Z,19.70
2018-09-10T18:45:50.457Z,19.70
2018-09-10T18:48:20.930Z,19.60
2018-09-10T18:50:51.364Z,19.60
2018-09-10T18:53:21.768Z,19.50
2018-09-10T18:55:52.693Z,19.40
2018-09-10T18:58:23.385Z,19.40
2018-09-10T19:00:53.920Z,19.30
2018-09-10T19:03:24.462Z,19.30
2018-09-10T19:05:54.924Z,19.20
2018-09-10T19:08:25.871Z,19.20
2018-09-10T19:10:56.301Z,19.10
2018-09-10T19:13:27.278Z,19.10
2018-09-10T19:16:01.625Z,19.00
2018-09-10T19:18:41.793Z,19.00
2018-09-10T19:21:16.636Z,19.00
2018-09-10T19:23:50.349Z,18.90
2018-09-10T19:26:27.123Z,18.90
2018-09-10T19:29:02.834Z,18.80
2018-09-10T19:31:39.351Z,18.80
2018-09-10T19:34:14.281Z,18.80
2018-09-10T19:36:52.423Z,18.70
2018-09-10T19:39:27.492Z,18.70
2018-09-10T19:42:01.887Z,18.70
2018-09-10T19:44:38.800Z,18.60
2018-09-10T19:47:14.779Z,18.60
2018-09-10T19:49:48.394Z,18.60
2018-09-10T19:52:22.956Z,18.50
2018-09-10T19:54:55.236Z,18.50
2018-09-10T19:57:27.911Z,18.40
2018-09-10T20:00:00.670Z,18.40
2018-09-10T20:02:32.698Z,18.30
2018-09-10T20:05:04.152Z,18.30
2018-09-10T20:07:34.829Z,18.20
2018-09-10T20:10:06.634Z,18.20
2018-09-10T20:12:37.561Z,18.10
2018-09-10T20:15:08.759Z,18.10
2018-09-10T20:17:39.595Z,18.10
2018-09-10T20:20:10.305Z,18.10
2018-09-10T20:22:41.055Z,18.10
2018-09-10T20:25:11.834Z,18.00
2018-09-10T20:27:42.561Z,18.00
2018-09-10T20:30:13.245Z,18.00
2018-09-10T20:32:43.964Z,17.90
2018-09-10T20:35:14.926Z,17.90
2018-09-10T20:37:45.616Z,17.80
2018-09-10T20:40:16.396Z,17.80
2018-09-10T20:42:47.085Z,17.80
2018-09-10T20:45:17.815Z,17.70
2018-09-10T20:47:48.567Z,17.70
2018-09-10T20:50:19.326Z,17.70
2018-09-10T20:52:50.076Z,17.60
2018-09-10T20:55:20.818Z,17.60
2018-09-10T20:57:51.553Z,17.50
2018-09-10T21:00:22.300Z,17.50
2018-09-10T21:02:52.995Z,17.40
2018-09-10T21:05:23.739Z,17.40
2018-09-10T21:07:54.439Z,17.30
2018-09-10T21:10:25.162Z,17.20
2018-09-10T21:12:55.869Z,17.20
2018-09-10T21:15:26.658Z,17.20
2018-09-10T21:17:57.528Z,17.10
2018-09-10T21:20:28.278Z,17.10
2018-09-10T21:22:58.970Z,17.20
2018-09-10T21:25:29.754Z,17.10
2018-09-10T21:28:00.649Z,17.10
2018-09-10T21:30:31.336Z,17.10
2018-09-10T21:33:02.108Z,17.10
2018-09-10T21:35:33.089Z,17.10
2018-09-10T21:38:03.903Z,17.10
2018-09-10T21:40:34.637Z,17.00
2018-09-10T21:43:05.561Z,17.00
2018-09-10T21:45:36.265Z,17.00
2018-09-10T21:48:07.025Z,17.00
2018-09-10T21:50:37.707Z,17.00
2018-09-10T21:53:08.453Z,17.00
2018-09-10T21:55:39.216Z,16.90
2018-09-10T21:58:10.144Z,16.90
2018-09-10T22:00:46.237Z,16.90
2018-09-10T22:03:17.396Z,16.90
2018-09-10T22:05:48.140Z,16.90
2018-09-10T22:08:18.848Z,16.90
2018-09-10T22:10:49.600Z,16.90
2018-09-10T22:13:20.464Z,17.00
2018-09-10T22:15:51.168Z,16.90
2018-09-10T22:18:21.821Z,17.00
2018-09-10T22:20:52.517Z,17.00
2018-09-10T22:23:23.366Z,17.00
2018-09-10T22:25:54.371Z,17.00
2018-09-10T22:28:25.734Z,17.00
2018-09-10T22:30:56.948Z,17.00
2018-09-10T22:33:27.771Z,16.90
2018-09-10T22:35:58.427Z,16.90
2018-09-10T22:38:29.561Z,16.90
2018-09-10T22:41:00.262Z,16.90
2018-09-10T22:43:30.978Z,16.90
2018-09-10T22:46:01.638Z,16.90
2018-09-10T22:48:32.316Z,16.80
2018-09-10T22:51:03.487Z,16.80
2018-09-10T22:53:34.176Z,16.80
2018-09-10T22:56:04.846Z,16.80
2018-09-10T22:58:35.937Z,16.80
2018-09-10T23:01:06.588Z,16.80
2018-09-10T23:03:37.276Z,16.80
2018-09-10T23:06:07.932Z,16.70
2018-09-10T23:08:38.654Z,16.70
2018-09-10T23:11:09.520Z,16.70
2018-09-10T23:13:40.232Z,16.70
2018-09-10T23:16:10.888Z,16.70
2018-09-10T23:18:41.568Z,16.60
2018-09-10T23:21:12.227Z,16.60
2018-09-10T23:23:42.994Z,16.50
2018-09-10T23:26:13.664Z,16.50
2018-09-10T23:28:44.348Z,16.50
2018-09-10T23:31:15.157Z,16.40
2018-09-10T23:33:45.890Z,16.40
2018-09-10T23:36:16.553Z,16.30
2018-09-10T23:38:47.261Z,16.30
2018-09-10T23:41:17.941Z,16.20
2018-09-10T23:43:48.626Z,16.20
2018-09-10T23:46:19.321Z,16.10
2018-09-10T23:48:49.963Z,16.10
2018-09-10T23:51:20.662Z,16.00
2018-09-10T23:53:51.328Z,16.00
2018-09-10T23:56:22.016Z,16.00
2018-09-10T23:58:52.716Z,15.90
